createdAt,value
2018-06-20T00:00:29.067Z,94.31
2018-06-20T00:02:58.271Z,95.54
2018-06-20T00:05:27.586Z,95.57
2018-06-20T00:07:56.825Z,95.64
2018-06-20T00:10:26.026Z,96.14
2018-06-20T00:12:55.277Z,95.37
2018-06-20T00:15:24.491Z,94.84
2018-06-20T00:17:53.682Z,95.29
2018-06-20T00:20:22.875Z,95.93
2018-06-20T00:22:52.053Z,96.01
2018-06-20T00:25:21.326Z,96.10
2018-06-20T00:27:50.505Z,96.30
2018-06-20T00:30:19.722Z,95.98
2018-06-20T00:32:48.914Z,96.44
2018-06-20T00:35:18.132Z,96.09
2018-06-20T00:37:47.315Z,96.37
2018-06-20T00:40:16.527Z,96.06
2018-06-20T00:42:45.805Z,96.06
2018-06-20T00:45:15.015Z,94.54
2018-06-20T00:47:44.215Z,95.60
2018-06-20T00:50:13.514Z,95.76
2018-06-20T00:52:42.695Z,95.54
2018-06-20T00:55:11.905Z,95.36
2018-06-20T00:57:41.126Z,95.65
2018-06-20T01:00:10.331Z,96.03
2018-06-20T01:02:39.527Z,96.28
2018-06-20T01:05:08.748Z,95.78
2018-06-20T01:07:37.959Z,95.14
2018-06-20T01:10:07.813Z,95.79
2018-06-20T01:12:36.995Z,96.31
2018-06-20T01:15:06.280Z,96.38
2018-06-20T01:17:35.499Z,96.43
2018-06-20T01:20:04.687Z,96.82
2018-06-20T01:22:33.876Z,96.69
2018-06-20T01:25:03.081Z,96.52
2018-06-20T01:27:32.293Z,94.62
2018-06-20T01:30:01.483Z,94.42
2018-06-20T01:32:30.732Z,95.44
2018-06-20T01:34:59.927Z,96.20
2018-06-20T01:37:29.123Z,96.54
2018-06-20T01:39:58.328Z,96.78
2018-06-20T01:42:27.571Z,96.74
2018-06-20T01:44:56.781Z,96.92
2018-06-20T01:47:26.127Z,97.01
2018-06-20T01:49:55.340Z,96.17
2018-06-20T01:52:24.303Z,96.75
2018-06-20T01:54:53.491Z,96.89
2018-06-20T01:57:22.686Z,97.22
2018-06-20T01:59:51.915Z,96.31
2018-06-20T02:02:21.122Z,96.64
2018-06-20T02:04:50.310Z,96.38
2018-06-20T02:07:19.526Z,96.32
2018-06-20T02:09:48.739Z,96.67
2018-06-20T02:12:17.954Z,97.10
2018-06-20T02:14:47.194Z,97.35
2018-06-20T02:17:16.383Z,97.19
2018-06-20T02:19:45.611Z,96.59
2018-06-20T02:22:14.835Z,96.66
2018-06-20T02:24:44.028Z,97.16
2018-06-20T02:27:13.243Z,97.21
2018-06-20T02:29:43.086Z,97.13
2018-06-20T02:32:12.318Z,97.38
2018-06-20T02:34:44.365Z,97.25
2018-06-20T02:37:13.609Z,97.21
2018-06-20T02:39:42.896Z,96.72
2018-06-20T02:42:12.097Z,96.72
2018-06-20T02:44:41.402Z,96.90
2018-06-20T02:47:10.598Z,97.02
2018-06-20T02:49:39.791Z,96.55
2018-06-20T02:52:09.071Z,96.74
2018-06-20T02:54:38.269Z,96.97
2018-06-20T02:57:07.473Z,96.17
2018-06-20T02:59:36.690Z,96.66
2018-06-20T03:02:05.891Z,96.91
2018-06-20T03:04:35.076Z,96.76
2018-06-20T03:07:04.306Z,96.82
2018-06-20T03:09:33.502Z,96.94
2018-06-20T03:12:02.710Z,95.99
2018-06-20T03:14:31.939Z,96.84
2018-06-20T03:17:01.157Z,97.38
2018-06-20T03:19:30.913Z,97.29
2018-06-20T03:22:00.186Z,97.66
2018-06-20T03:24:29.403Z,97.67
2018-06-20T03:26:58.603Z,97.07
2018-06-20T03:29:27.788Z,96.36
2018-06-20T03:31:57.027Z,96.38
2018-06-20T03:34:26.302Z,96.68
2018-06-20T03:36:55.687Z,96.41
2018-06-20T03:39:24.894Z,96.27
2018-06-20T03:41:54.162Z,95.38
2018-06-20T03:44:23.474Z,95.63
2018-06-20T03:46:52.677Z,95.38
2018-06-20T03:49:21.900Z,95.24
2018-06-20T03:51:51.134Z,95.52
2018-06-20T03:54:20.338Z,95.70
2018-06-20T03:56:49.749Z,95.20
2018-06-20T03:59:18.945Z,95.06
2018-06-20T04:01:48.190Z,94.59
2018-06-20T04:04:17.391Z,94.14
2018-06-20T04:06:46.967Z,94.41
2018-06-20T04:09:16.151Z,94.71
2018-06-20T04:11:45.345Z,94.58
2018-06-20T04:14:14.555Z,94.54
2018-06-20T04:16:43.778Z,94.28
2018-06-20T04:19:12.978Z,94.32
2018-06-20T04:21:42.217Z,93.53
2018-06-20T04:24:11.406Z,93.07
2018-06-20T04:26:40.596Z,93.42
2018-06-20T04:29:09.849Z,93.54
2018-06-20T04:31:39.034Z,92.17
2018-06-20T04:34:08.441Z,92.90
2018-06-20T04:36:37.643Z,92.41
2018-06-20T04:39:09.559Z,91.74
2018-06-20T04:41:38.755Z,92.51
2018-06-20T04:44:07.986Z,91.65
2018-06-20T04:46:37.200Z,88.09
2018-06-20T04:49:06.461Z,69.36
2018-06-20T04:51:35.658Z,62.47
2018-06-20T04:54:04.854Z,66.51
2018-06-20T04:56:34.112Z,61.01
2018-06-20T04:59:03.586Z,48.40
2018-06-20T05:01:32.849Z,45.56
2018-06-20T05:04:02.043Z,44.05
2018-06-20T05:06:31.269Z,44.00
2018-06-20T05:09:02.115Z,43.19
2018-06-20T05:11:32.027Z,44.57
2018-06-20T05:14:01.271Z,41.46
2018-06-20T05:16:30.447Z,37.37
2018-06-20T05:18:59.643Z,37.99
2018-06-20T05:21:28.855Z,42.93
2018-06-20T05:23:58.072Z,44.52
2018-06-20T05:26:27.255Z,40.34
2018-06-20T05:28:56.434Z,40.63
2018-06-20T05:31:25.631Z,38.19
2018-06-20T05:33:54.822Z,40.83
2018-06-20T05:36:24.005Z,40.54
2018-06-20T05:38:53.262Z,40.51
2018-06-20T05:41:22.495Z,41.82
2018-06-20T05:43:51.994Z,38.63
2018-06-20T05:46:21.203Z,35.09
2018-06-20T05:48:50.531Z,35.78
2018-06-20T05:51:19.853Z,34.43
2018-06-20T05:53:49.099Z,38.52
2018-06-20T05:56:18.395Z,33.71
2018-06-20T05:58:47.612Z,29.77
2018-06-20T06:01:17.003Z,31.12
2018-06-20T06:03:46.558Z,30.08
2018-06-20T06:06:16.743Z,27.37
2018-06-20T06:08:47.193Z,30.61
2018-06-20T06:11:16.389Z,29.45
2018-06-20T06:13:45.587Z,29.37
2018-06-20T06:16:14.774Z,29.74
2018-06-20T06:18:43.999Z,28.01
2018-06-20T06:21:13.175Z,31.09
2018-06-20T06:23:42.393Z,31.32
2018-06-20T06:26:11.597Z,31.71
2018-06-20T06:28:40.808Z,30.97
2018-06-20T06:31:10.025Z,29.75
2018-06-20T06:33:39.279Z,30.75
2018-06-20T06:36:08.522Z,31.22
2018-06-20T06:38:37.697Z,29.49
2018-06-20T06:41:06.878Z,26.90
2018-06-20T06:43:36.080Z,28.24
2018-06-20T06:46:05.155Z,27.25
2018-06-20T06:48:34.360Z,27.22
2018-06-20T06:51:03.571Z,26.78
2018-06-20T06:53:32.774Z,29.67
2018-06-20T06:56:02.054Z,26.10
2018-06-20T06:58:32.219Z,23.80
2018-06-20T07:01:01.412Z,27.12
2018-06-20T07:03:30.729Z,26.71
2018-06-20T07:05:59.930Z,27.28
2018-06-20T07:08:29.112Z,24.10
2018-06-20T07:10:58.311Z,24.03
2018-06-20T07:13:27.719Z,24.01
2018-06-20T07:15:56.908Z,23.75
2018-06-20T07:18:26.123Z,23.81
2018-06-20T07:20:55.386Z,24.25
2018-06-20T07:23:24.767Z,23.83
2018-06-20T07:25:53.975Z,23.92
2018-06-20T07:28:23.201Z,24.79
2018-06-20T07:30:52.409Z,25.06
2018-06-20T07:33:21.633Z,28.06
2018-06-20T07:35:50.973Z,28.81
2018-06-20T07:38:20.119Z,25.48
2018-06-20T07:40:49.403Z,26.22
2018-06-20T07:43:18.616Z,24.04
2018-06-20T07:45:47.808Z,26.25
2018-06-20T07:48:17.035Z,26.12
2018-06-20T07:50:46.252Z,23.96
2018-06-20T07:53:15.451Z,27.17
2018-06-20T07:55:44.635Z,24.73
2018-06-20T07:59:17.882Z,25.00
2018-06-20T08:02:09.866Z,24.11
2018-06-20T08:04:44.578Z,28.69
2018-06-20T08:07:18.927Z,20.80
2018-06-20T08:09:53.283Z,28.56
2018-06-20T08:12:27.716Z,29.83
2018-06-20T08:15:02.040Z,29.77
2018-06-20T08:17:36.366Z,22.73
2018-06-20T08:20:09.667Z,20.52
2018-06-20T08:22:38.914Z,24.86
2018-06-20T08:25:08.127Z,29.98
2018-06-20T08:27:37.339Z,24.04
2018-06-20T08:30:07.971Z,28.09
2018-06-20T08:32:37.185Z,22.47
2018-06-20T08:35:06.371Z,28.73
2018-06-20T08:37:35.703Z,26.97
2018-06-20T08:40:05.246Z,21.99
2018-06-20T08:42:34.525Z,20.62
2018-06-20T08:45:03.692Z,20.71
2018-06-20T08:47:32.886Z,24.62
2018-06-20T08:50:02.114Z,18.92
2018-06-20T08:52:31.391Z,26.21
2018-06-20T08:55:00.583Z,21.18
2018-06-20T08:57:29.852Z,27.56
2018-06-20T08:59:59.059Z,27.67
2018-06-20T09:02:28.064Z,24.55
2018-06-20T09:05:02.654Z,21.74
2018-06-20T09:07:37.187Z,18.88
2018-06-20T09:10:11.507Z,21.32
2018-06-20T09:12:45.927Z,24.11
2018-06-20T09:15:20.287Z,30.08
2018-06-20T09:17:54.593Z,30.17
2018-06-20T09:20:24.808Z,30.19
2018-06-20T09:22:53.970Z,29.78
2018-06-20T09:25:23.210Z,26.48
2018-06-20T09:27:52.420Z,25.51
2018-06-20T09:30:21.627Z,27.27
2018-06-20T09:32:50.833Z,19.51
2018-06-20T09:35:20.027Z,18.12
2018-06-20T09:37:49.222Z,18.62
2018-06-20T09:40:18.466Z,25.75
2018-06-20T09:42:47.673Z,25.22
2018-06-20T09:45:16.902Z,22.95
2018-06-20T09:47:46.084Z,23.86
2018-06-20T09:50:20.547Z,17.67
2018-06-20T09:52:49.774Z,20.09
2018-06-20T09:55:18.966Z,18.23
2018-06-20T09:57:49.134Z,17.30
2018-06-20T10:00:23.605Z,24.29
2018-06-20T10:02:58.082Z,24.35
2018-06-20T10:05:32.487Z,25.48
2018-06-20T10:08:06.924Z,26.33
2018-06-20T10:10:41.306Z,27.66
2018-06-20T10:13:12.512Z,21.28
2018-06-20T10:15:41.688Z,26.08
2018-06-20T10:18:10.987Z,25.08
2018-06-20T10:20:40.190Z,28.89
2018-06-20T10:23:09.392Z,26.30
2018-06-20T10:25:38.587Z,27.78
2018-06-20T10:28:07.774Z,24.87
2018-06-20T10:30:37.069Z,27.23
2018-06-20T10:33:06.307Z,26.60
2018-06-20T10:35:35.599Z,30.42
2018-06-20T10:38:04.811Z,30.74
2018-06-20T10:40:34.092Z,32.63
2018-06-20T10:43:03.506Z,31.96
2018-06-20T10:45:38.829Z,31.46
2018-06-20T10:48:14.774Z,27.92
2018-06-20T10:50:44.787Z,25.57
2018-06-20T10:53:14.010Z,18.88
2018-06-20T10:55:43.220Z,26.25
2018-06-20T10:58:17.675Z,25.66
2018-06-20T11:00:52.012Z,29.40
2018-06-20T11:03:26.364Z,28.46
2018-06-20T11:06:00.706Z,30.88
2018-06-20T11:08:35.005Z,28.27
2018-06-20T11:11:09.338Z,33.27
2018-06-20T11:13:38.541Z,30.84
2018-06-20T11:16:07.786Z,28.60
2018-06-20T11:18:39.973Z,26.89
2018-06-20T11:21:09.178Z,28.31
2018-06-20T11:23:38.377Z,30.82
2018-06-20T11:26:07.619Z,22.44
2018-06-20T11:28:36.902Z,31.41
2018-06-20T11:31:06.152Z,30.76
2018-06-20T11:33:35.427Z,32.95
2018-06-20T11:36:04.676Z,23.03
2018-06-20T11:38:33.863Z,28.33
2018-06-20T11:41:03.051Z,31.09
2018-06-20T11:43:32.255Z,30.64
2018-06-20T11:46:06.815Z,29.32
2018-06-20T11:48:36.055Z,29.39
2018-06-20T11:51:06.359Z,30.20
2018-06-20T11:53:35.559Z,29.95
2018-06-20T11:56:04.754Z,29.27
2018-06-20T11:58:39.079Z,32.03
2018-06-20T12:01:13.530Z,31.65
2018-06-20T12:03:47.888Z,30.13
2018-06-20T12:06:22.266Z,27.58
2018-06-20T12:08:56.675Z,32.80
2018-06-20T12:11:31.107Z,30.70
2018-06-20T12:14:05.450Z,30.17
2018-06-20T12:16:36.356Z,28.06
2018-06-20T12:19:10.672Z,28.44
2018-06-20T12:21:45.021Z,33.04
2018-06-20T12:24:19.360Z,31.41
2018-06-20T12:26:53.729Z,32.79
2018-06-20T12:29:28.028Z,33.39
2018-06-20T12:32:02.355Z,33.78
2018-06-20T12:34:36.725Z,33.46
2018-06-20T12:37:11.170Z,36.92
2018-06-20T12:39:39.494Z,34.67
2018-06-20T12:42:13.823Z,32.72
2018-06-20T12:45:18.634Z,34.70
2018-06-20T12:47:50.361Z,35.08
2018-06-20T12:50:22.334Z,35.49
2018-06-20T12:52:51.539Z,34.78
2018-06-20T12:55:20.739Z,33.98
2018-06-20T12:57:50.074Z,34.81
2018-06-20T13:00:19.255Z,32.85
2018-06-20T13:02:48.475Z,34.25
2018-06-20T13:05:17.883Z,34.64
2018-06-20T13:07:47.070Z,38.52
2018-06-20T13:10:16.260Z,36.39
2018-06-20T13:12:45.495Z,37.21
2018-06-20T13:15:14.676Z,35.52
2018-06-20T13:17:43.864Z,36.43
2018-06-20T13:20:13.126Z,34.97
2018-06-20T13:22:42.265Z,35.77
2018-06-20T13:25:11.458Z,36.53
2018-06-20T13:27:46.532Z,37.87
2018-06-20T13:30:16.323Z,32.33
2018-06-20T13:34:54.791Z,35.46
2018-06-20T13:37:29.133Z,36.22
2018-06-20T13:40:03.555Z,33.99
2018-06-20T13:42:37.920Z,35.93
2018-06-20T13:46:16.331Z,35.86
2018-06-20T13:48:45.712Z,35.49
2018-06-20T13:51:14.903Z,36.38
2018-06-20T13:53:44.152Z,34.12
2018-06-20T13:56:13.359Z,36.69
2018-06-20T13:58:42.542Z,38.08
2018-06-20T14:01:11.974Z,34.06
2018-06-20T14:03:41.203Z,36.44
2018-06-20T14:06:10.454Z,36.59
2018-06-20T14:08:39.675Z,35.75
2018-06-20T14:11:08.854Z,35.30
2018-06-20T14:13:38.243Z,35.66
2018-06-20T14:16:07.471Z,35.35
2018-06-20T14:18:36.700Z,36.02
2018-06-20T14:21:11.242Z,36.67
2018-06-20T14:23:40.426Z,37.09
2018-06-20T14:26:09.710Z,35.09
2018-06-20T14:28:38.888Z,35.34
2018-06-20T14:31:13.398Z,36.37
2018-06-20T14:33:47.742Z,37.05
2018-06-20T14:36:22.225Z,37.75
2018-06-20T14:38:56.640Z,36.92
2018-06-20T14:41:26.108Z,36.28
2018-06-20T14:44:00.565Z,38.73
2018-06-20T14:46:31.478Z,34.07
2018-06-20T14:49:01.078Z,37.02
2018-06-20T14:51:30.362Z,36.29
2018-06-20T14:53:59.571Z,36.10
2018-06-20T14:56:28.745Z,37.06
2018-06-20T14:58:57.962Z,36.30
2018-06-20T15:01:27.170Z,35.66
2018-06-20T15:03:56.405Z,35.92
2018-06-20T15:06:25.852Z,35.84
2018-06-20T15:08:55.068Z,33.91
2018-06-20T15:11:24.385Z,34.43
2018-06-20T15:13:53.599Z,36.01
2018-06-20T15:16:28.173Z,32.75
2018-06-20T15:18:57.442Z,38.16
2018-06-20T15:21:26.646Z,34.64
2018-06-20T15:23:55.956Z,32.72
2018-06-20T15:26:30.391Z,34.81
2018-06-20T15:29:04.710Z,33.87
2018-06-20T15:31:39.013Z,35.66
2018-06-20T15:34:13.397Z,36.48
2018-06-20T15:36:47.699Z,34.77
2018-06-20T15:39:16.886Z,33.10
2018-06-20T15:41:46.120Z,32.21
2018-06-20T15:44:15.324Z,37.27
2018-06-20T15:46:44.537Z,35.91
2018-06-20T15:49:13.769Z,34.07
2018-06-20T15:51:43.030Z,35.59
2018-06-20T15:54:12.237Z,35.76
2018-06-20T15:56:41.475Z,38.54
2018-06-20T15:59:10.653Z,36.53
2018-06-20T16:01:39.871Z,36.98
2018-06-20T16:04:09.262Z,35.86
2018-06-20T16:06:38.438Z,36.78
2018-06-20T16:09:13.627Z,37.00
2018-06-20T16:11:42.818Z,36.26
2018-06-20T16:14:12.222Z,38.14
2018-06-20T16:16:41.398Z,38.95
2018-06-20T16:19:15.861Z,39.39
2018-06-20T16:21:50.374Z,37.85
2018-06-20T16:24:24.775Z,40.09
2018-06-20T16:26:59.061Z,40.04
2018-06-20T16:29:33.377Z,41.01
2018-06-20T16:32:02.611Z,41.00
2018-06-20T16:34:31.795Z,41.01
2018-06-20T16:37:00.978Z,42.66
2018-06-20T16:39:30.173Z,42.54
2018-06-20T16:41:59.223Z,44.02
2018-06-20T16:44:28.591Z,42.05
2018-06-20T16:46:57.839Z,41.81
2018-06-20T16:49:27.049Z,43.04
2018-06-20T16:51:56.253Z,42.24
2018-06-20T16:54:25.648Z,42.60
2018-06-20T16:56:54.851Z,43.17
2018-06-20T16:59:24.082Z,42.27
2018-06-20T17:01:58.542Z,42.37
2018-06-20T17:04:27.764Z,42.90
2018-06-20T17:06:57.015Z,42.90
2018-06-20T17:09:26.366Z,42.60
2018-06-20T17:12:00.726Z,41.76
2018-06-20T17:14:35.080Z,42.93
2018-06-20T17:17:09.426Z,43.81
2018-06-20T17:19:44.356Z,42.73
2018-06-20T17:51:43.671Z,43.20
2018-06-20T17:54:12.854Z,46.69
2018-06-20T17:56:42.086Z,47.25
2018-06-20T17:59:11.314Z,47.96
2018-06-20T18:01:40.530Z,48.11
2018-06-20T18:04:09.722Z,48.49
2018-06-20T18:06:44.302Z,48.65
2018-06-20T18:09:18.662Z,49.50
2018-06-20T18:11:53.210Z,50.04
2018-06-20T18:14:27.555Z,49.58
2018-06-20T18:16:57.486Z,49.16
2018-06-20T18:19:26.901Z,49.58
2018-06-20T18:21:56.138Z,50.03
2018-06-20T18:24:25.819Z,50.89
2018-06-20T18:26:55.434Z,50.00
2018-06-20T18:29:39.524Z,51.15
2018-06-20T18:32:08.879Z,51.80
2018-06-20T18:34:38.266Z,52.02
2018-06-20T18:37:07.455Z,52.82
2018-06-20T18:39:41.853Z,52.34
2018-06-20T18:42:10.990Z,54.06
2018-06-20T18:44:40.184Z,53.54
2018-06-20T18:47:09.404Z,54.13
2018-06-20T18:49:38.597Z,53.75
2018-06-20T18:52:07.790Z,55.01
2018-06-20T18:54:36.980Z,55.52
2018-06-20T18:57:09.533Z,56.10
2018-06-20T18:59:43.919Z,56.31
2018-06-20T19:02:18.178Z,57.47
2018-06-20T19:04:52.635Z,57.92
2018-06-20T19:07:27.074Z,57.74
2018-06-20T19:09:56.292Z,59.57
2018-06-20T19:12:25.498Z,60.15
2018-06-20T19:14:54.732Z,60.23
2018-06-20T19:17:23.886Z,60.07
2018-06-20T19:19:53.150Z,61.92
2018-06-20T19:22:22.294Z,62.76
2018-06-20T19:24:51.482Z,64.50
2018-06-20T19:27:20.731Z,66.30
2018-06-20T19:29:49.938Z,67.05
2018-06-20T19:32:19.130Z,67.47
2018-06-20T19:34:48.395Z,67.08
2018-06-20T19:37:17.583Z,68.91
2018-06-20T19:39:50.775Z,69.29
2018-06-20T19:42:21.830Z,70.11
2018-06-20T19:44:51.725Z,72.05
2018-06-20T19:47:20.833Z,70.35
2018-06-20T19:49:50.022Z,71.05
2018-06-20T19:52:19.230Z,72.47
2018-06-20T19:54:48.435Z,72.67
2018-06-20T19:57:17.634Z,73.77
2018-06-20T19:59:46.879Z,75.02
2018-06-20T20:02:16.115Z,74.92
2018-06-20T20:04:45.299Z,75.40
2018-06-20T20:07:14.517Z,74.73
2018-06-20T20:09:43.853Z,75.50
2018-06-20T20:12:13.045Z,75.74
2018-06-20T20:14:42.279Z,76.96
2018-06-20T20:17:11.467Z,74.48
2018-06-20T20:19:41.670Z,76.69
2018-06-20T20:22:10.871Z,77.96
2018-06-20T20:24:40.062Z,77.92
2018-06-20T20:27:09.294Z,79.48
2018-06-20T20:29:38.510Z,79.60
2018-06-20T20:32:07.714Z,80.37
2018-06-20T20:34:36.975Z,81.26
2018-06-20T20:37:06.242Z,81.35
2018-06-20T20:39:35.473Z,82.16
2018-06-20T20:42:04.703Z,82.69
2018-06-20T20:44:33.923Z,82.83
2018-06-20T20:47:03.343Z,83.31
2018-06-20T20:49:32.637Z,83.73
2018-06-20T20:52:01.823Z,84.57
2018-06-20T20:54:31.038Z,84.66
2018-06-20T20:57:00.298Z,82.84
2018-06-20T20:59:29.671Z,82.74
2018-06-20T21:01:58.888Z,81.13
2018-06-20T21:04:28.098Z,84.60
2018-06-20T21:06:57.299Z,84.53
2018-06-20T21:09:26.518Z,84.83
2018-06-20T21:11:55.708Z,84.28
2018-06-20T21:14:24.964Z,81.70
2018-06-20T21:16:54.172Z,81.48
2018-06-20T21:19:23.370Z,84.12
2018-06-20T21:21:52.636Z,83.80
2018-06-20T21:24:21.847Z,85.37
2018-06-20T21:26:51.047Z,85.20
2018-06-20T21:29:20.549Z,86.36
2018-06-20T21:31:49.771Z,85.37
2018-06-20T21:34:18.975Z,84.14
2018-06-20T21:36:48.216Z,86.28
2018-06-20T21:39:17.416Z,86.22
2018-06-20T21:41:46.627Z,87.04
2018-06-20T21:44:15.822Z,87.17
2018-06-20T21:46:45.048Z,87.28
2018-06-20T21:49:14.218Z,88.31
2018-06-20T21:51:43.521Z,86.40
2018-06-20T21:54:12.759Z,86.51
2018-06-20T21:56:41.955Z,87.66
2018-06-20T21:59:11.182Z,86.63
2018-06-20T22:01:40.396Z,87.37
2018-06-20T22:04:10.034Z,88.27
2018-06-20T22:06:39.242Z,87.79
2018-06-20T22:09:09.857Z,89.25
2018-06-20T22:11:39.158Z,87.03
2018-06-20T22:14:09.398Z,86.85
2018-06-20T22:16:39.066Z,88.75
2018-06-20T22:19:08.271Z,89.34
2018-06-20T22:21:37.470Z,89.45
2018-06-20T22:24:07.005Z,89.59
2018-06-20T22:26:35.961Z,89.62
2018-06-20T22:29:05.885Z,88.41
2018-06-20T22:31:35.110Z,90.09
2018-06-20T22:34:04.378Z,90.21
2018-06-20T22:36:33.708Z,90.22
2018-06-20T22:39:02.982Z,90.04
2018-06-20T22:41:32.211Z,90.21
2018-06-20T22:44:01.410Z,90.62
2018-06-20T22:46:30.598Z,90.77
2018-06-20T22:48:59.803Z,90.64
2018-06-20T22:51:29.454Z,91.06
2018-06-20T22:53:58.669Z,91.49
2018-06-20T22:56:27.895Z,91.25
2018-06-20T22:58:57.127Z,91.74
2018-06-20T23:01:26.330Z,92.41
2018-06-20T23:03:58.725Z,92.55
2018-06-20T23:06:27.939Z,92.49
2018-06-20T23:08:57.166Z,90.98
2018-06-20T23:11:26.380Z,91.87
2018-06-20T23:13:55.667Z,91.75
2018-06-20T23:16:24.875Z,92.18
2018-06-20T23:18:54.611Z,90.38
2018-06-20T23:21:23.890Z,92.02
2018-06-20T23:23:53.123Z,90.17
2018-06-20T23:26:22.339Z,90.31
2018-06-20T23:28:51.522Z,90.77
2018-06-20T23:31:20.824Z,91.87
2018-06-20T23:33:50.040Z,92.68
2018-06-20T23:36:19.267Z,91.44
2018-06-20T23:38:48.246Z,90.51
2018-06-20T23:41:17.438Z,90.80
2018-06-20T23:43:46.650Z,92.85
2018-06-20T23:46:15.927Z,93.61
2018-06-20T23:48:45.127Z,94.26
2018-06-20T23:51:14.427Z,94.16
2018-06-20T23:53:43.628Z,93.64
2018-06-20T23:56:12.845Z,93.59
2018-06-20T23:58:42.038Z,94.14
